Time;durP1;ratioP1;P1;durP2;ratioP2;P2;SDS_P1;SDS_P2;PMS_P1;PMS_P2;Temp;Humidity;BMP_temperature;BMP_pressure;BME280_temperature;BME280_humidity;BME280_pressure;Samples;Min_cycle;Max_cycle;Signal;HPM_P1;HPM_P2
2021/11/20 00:00:00;;;;;;;27.47;18.37;;;9.10;99.90;;;;;;5050007;28;20410;-82
2021/11/20 00:02:29;;;;;;;24.67;15.50;;;9.00;99.90;;;;;;5050168;28;20898;-81
2021/11/20 00:04:56;;;;;;;23.77;17.23;;;9.00;99.90;;;;;;5050052;28;20234;-82
2021/11/20 00:07:23;;;;;;;24.80;15.80;;;9.00;99.90;;;;;;5050111;28;20501;-82
2021/11/20 00:09:49;;;;;;;21.20;16.00;;;8.90;99.90;;;;;;5050128;28;20403;-82
2021/11/20 00:12:22;;;;;;;26.50;17.07;;;8.90;99.90;;;;;;5050509;28;20457;-81
2021/11/20 00:14:50;;;;;;;28.47;19.37;;;9.00;99.90;;;;;;5050486;28;20410;-82
2021/11/20 00:17:17;;;;;;;28.90;19.33;;;9.00;99.90;;;;;;5051618;28;20464;-82
2021/11/20 00:19:43;;;;;;;21.87;16.30;;;9.00;99.90;;;;;;5050136;28;20848;-81
2021/11/20 00:22:12;;;;;;;21.40;15.17;;;9.00;99.90;;;;;;5050447;28;20512;-81
2021/11/20 00:24:42;;;;;;;24.30;14.70;;;9.10;99.90;;;;;;5050326;28;20847;-82
2021/11/20 00:27:16;;;;;;;19.40;14.00;;;9.10;99.90;;;;;;5050391;28;20402;-82
2021/11/20 00:29:47;;;;;;;27.10;15.47;;;9.10;99.90;;;;;;5050055;28;20422;-82
2021/11/20 00:32:18;;;;;;;25.17;15.50;;;9.00;99.90;;;;;;5049987;28;20585;-82
2021/11/20 00:34:45;;;;;;;19.37;15.10;;;9.00;99.90;;;;;;5050585;28;20411;-81
2021/11/20 00:37:12;;;;;;;20.10;14.40;;;9.00;99.90;;;;;;5050255;28;20790;-81
2021/11/20 00:39:38;;;;;;;23.57;17.50;;;9.00;99.90;;;;;;5050093;28;20414;-81
2021/11/20 00:42:09;;;;;;;22.73;16.67;;;9.00;99.90;;;;;;5050400;28;20418;-82
2021/11/20 00:44:35;;;;;;;25.73;15.27;;;9.00;99.90;;;;;;5050098;28;21019;-82
2021/11/20 00:47:02;;;;;;;21.60;15.93;;;8.90;99.90;;;;;;5050354;28;20410;-81
2021/11/20 00:49:28;;;;;;;22.00;15.87;;;8.90;99.90;;;;;;5051323;28;20425;-82
2021/11/20 00:51:55;;;;;;;25.20;16.47;;;8.90;99.90;;;;;;5050073;28;20461;-81
2021/11/20 00:54:21;;;;;;;20.90;14.57;;;8.90;99.90;;;;;;5050066;28;20422;-82
2021/11/20 00:56:48;;;;;;;21.57;15.43;;;9.00;99.90;;;;;;5050096;28;20426;-81
2021/11/20 00:59:14;;;;;;;22.03;13.10;;;8.90;99.90;;;;;;5049790;28;20472;-82
2021/11/20 01:01:47;;;;;;;21.93;13.97;;;8.90;99.90;;;;;;5050223;28;20414;-82
2021/11/20 01:04:14;;;;;;;20.07;13.30;;;9.00;99.90;;;;;;5049061;28;20483;-82
2021/11/20 01:06:42;;;;;;;27.57;15.97;;;8.90;99.90;;;;;;5051311;28;20414;-81
2021/11/20 01:09:13;;;;;;;17.73;14.20;;;9.00;99.90;;;;;;5052260;28;20414;-82
2021/11/20 01:11:43;;;;;;;24.07;15.37;;;9.00;99.90;;;;;;5054338;28;20453;-82
2021/11/20 01:14:11;;;;;;;19.40;12.70;;;9.00;99.90;;;;;;5053941;28;21049;-82
2021/11/20 01:16:38;;;;;;;20.07;14.77;;;9.00;99.90;;;;;;5053425;28;20446;-82
2021/11/20 01:19:04;;;;;;;21.10;14.00;;;9.00;99.90;;;;;;5054153;28;20426;-82
2021/11/20 01:21:31;;;;;;;21.80;13.13;;;9.00;99.90;;;;;;5055035;28;20777;-82
2021/11/20 01:23:57;;;;;;;18.50;13.10;;;9.00;99.90;;;;;;5053398;28;20430;-82
2021/11/20 01:26:23;;;;;;;19.33;14.00;;;9.00;99.90;;;;;;5053905;28;20513;-82
2021/11/20 01:28:52;;;;;;;19.17;13.53;;;9.00;99.90;;;;;;5053090;28;20179;-82
2021/11/20 01:31:21;;;;;;;21.53;12.83;;;9.00;99.90;;;;;;5053237;28;20450;-82
2021/11/20 01:33:47;;;;;;;23.60;15.47;;;8.90;99.90;;;;;;5053056;28;20427;-82
2021/11/20 01:36:17;;;;;;;22.43;14.37;;;8.90;99.90;;;;;;5053277;28;20500;-82
2021/11/20 01:38:43;;;;;;;22.07;14.03;;;8.90;99.90;;;;;;5052850;28;20403;-81
2021/11/20 01:41:09;;;;;;;23.50;15.70;;;8.90;99.90;;;;;;5053113;28;20422;-82
2021/11/20 01:43:34;;;;;;;19.63;13.27;;;8.90;99.90;;;;;;5052903;28;20461;-82
2021/11/20 01:46:04;;;;;;;23.27;14.30;;;8.90;99.90;;;;;;5052969;28;20186;-82
2021/11/20 01:48:55;;;;;;;21.03;13.83;;;8.90;99.90;;;;;;5052749;28;20180;-82
2021/11/20 01:51:29;;;;;;;18.60;12.77;;;8.90;99.90;;;;;;5052736;28;20545;-82
2021/11/20 01:54:20;;;;;;;18.50;14.30;;;8.90;99.90;;;;;;5052882;28;20426;-82
2021/11/20 01:57:08;;;;;;;18.33;13.60;;;8.80;99.90;;;;;;5053028;28;20544;-82
2021/11/20 01:59:33;;;;;;;16.17;12.83;;;8.80;99.90;;;;;;5052409;28;20444;-82
2021/11/20 02:02:18;;;;;;;17.47;12.97;;;8.80;99.90;;;;;;5052686;28;20406;-82
2021/11/20 02:05:11;;;;;;;22.43;13.57;;;8.90;99.90;;;;;;5052662;28;20176;-82
2021/11/20 02:07:48;;;;;;;19.47;13.60;;;8.90;99.90;;;;;;5052760;28;20949;-82
2021/11/20 02:10:43;;;;;;;20.67;13.07;;;8.90;99.90;;;;;;5052693;28;20419;-82
2021/11/20 02:13:14;;;;;;;17.97;13.03;;;8.90;99.90;;;;;;5052494;28;20874;-82
2021/11/20 02:15:56;;;;;;;14.60;12.03;;;8.90;99.90;;;;;;5052537;28;20486;-82
2021/11/20 02:18:24;;;;;;;20.00;13.50;;;8.90;99.90;;;;;;5051912;28;20521;-82
2021/11/20 02:20:58;;;;;;;20.77;11.50;;;8.90;99.90;;;;;;5051328;28;20410;-82
2021/11/20 02:23:24;;;;;;;19.50;12.60;;;8.90;99.90;;;;;;5052417;28;20422;-82
2021/11/20 02:25:49;;;;;;;18.50;13.67;;;8.80;99.90;;;;;;5052295;28;20468;-82
2021/11/20 02:28:16;;;;;;;16.70;11.83;;;8.80;99.90;;;;;;5052327;28;20175;-82
2021/11/20 02:30:43;;;;;;;18.20;13.20;;;8.90;99.90;;;;;;5052432;28;20210;-82
2021/11/20 02:33:38;;;;;;;16.60;12.57;;;8.80;99.90;;;;;;5051911;28;20461;-82
2021/11/20 02:36:09;;;;;;;17.43;12.37;;;8.80;99.90;;;;;;5049994;28;20919;-82
2021/11/20 02:39:07;;;;;;;17.13;12.57;;;8.80;99.90;;;;;;5051884;28;20411;-82
2021/11/20 02:41:36;;;;;;;17.00;13.60;;;8.80;99.90;;;;;;5031499;28;20446;-82
2021/11/20 02:44:04;;;;;;;15.90;11.90;;;8.80;99.90;;;;;;5052080;28;20492;-82
2021/11/20 02:46:33;;;;;;;16.87;13.10;;;8.80;99.90;;;;;;5051873;28;20406;-82
2021/11/20 02:48:59;;;;;;;16.90;12.03;;;8.80;99.90;;;;;;5051808;28;20410;-82
2021/11/20 02:51:32;;;;;;;18.90;14.03;;;8.80;99.90;;;;;;5051780;28;20458;-82
2021/11/20 02:54:07;;;;;;;17.53;12.87;;;8.80;99.90;;;;;;5051924;28;20770;-82
2021/11/20 02:56:46;;;;;;;17.50;12.27;;;8.80;99.90;;;;;;5051896;28;20929;-82
2021/11/20 02:59:12;;;;;;;19.70;13.50;;;8.80;99.90;;;;;;5051648;28;20789;-82
2021/11/20 03:01:39;;;;;;;16.30;12.43;;;8.70;99.90;;;;;;5051701;28;20425;-82
2021/11/20 03:04:08;;;;;;;19.20;11.53;;;8.70;99.90;;;;;;5051823;28;20531;-82
2021/11/20 03:06:34;;;;;;;16.70;13.10;;;8.80;99.90;;;;;;5051650;28;20402;-82
2021/11/20 03:09:02;;;;;;;14.43;11.73;;;8.80;99.90;;;;;;5051504;28;20422;-82
2021/11/20 03:11:28;;;;;;;18.90;11.60;;;8.80;99.90;;;;;;5051377;28;20461;-82
2021/11/20 03:13:56;;;;;;;16.60;11.90;;;8.80;99.90;;;;;;5051296;28;20516;-82
2021/11/20 03:16:23;;;;;;;19.00;12.57;;;8.80;99.90;;;;;;5051561;28;20411;-82
2021/11/20 03:18:48;;;;;;;18.50;11.90;;;8.70;99.90;;;;;;5051064;28;20825;-82
2021/11/20 03:21:16;;;;;;;18.70;13.40;;;8.60;99.90;;;;;;5051457;28;20505;-82
2021/11/20 03:23:49;;;;;;;15.50;11.67;;;8.70;99.90;;;;;;5051170;28;20346;-82
2021/11/20 03:26:14;;;;;;;19.13;14.93;;;8.70;99.90;;;;;;5051169;28;20946;-82
2021/11/20 03:28:40;;;;;;;14.97;11.93;;;8.60;99.90;;;;;;5050973;28;20414;-82
2021/11/20 03:31:06;;;;;;;19.50;11.93;;;8.60;99.90;;;;;;5051970;28;20195;-82
2021/11/20 03:33:32;;;;;;;14.97;11.50;;;8.60;99.90;;;;;;5050828;28;20241;-82
2021/11/20 03:35:58;;;;;;;15.00;11.20;;;8.60;99.90;;;;;;5050980;28;20168;-82
2021/11/20 03:38:24;;;;;;;16.40;11.53;;;8.60;99.90;;;;;;5050965;28;20403;-82
2021/11/20 03:40:50;;;;;;;15.70;11.63;;;8.60;99.90;;;;;;5051197;28;20172;-81
2021/11/20 03:43:16;;;;;;;17.07;12.13;;;8.60;99.90;;;;;;5050591;28;20191;-82
2021/11/20 03:45:43;;;;;;;15.10;11.93;;;8.60;99.90;;;;;;5050713;28;20478;-82
2021/11/20 03:48:10;;;;;;;19.47;13.50;;;8.60;99.90;;;;;;5050521;28;20418;-82
2021/11/20 03:50:37;;;;;;;14.87;11.93;;;8.60;99.90;;;;;;5050651;28;20422;-82
2021/11/20 03:53:05;;;;;;;18.70;13.13;;;8.60;99.90;;;;;;5050699;28;20422;-82
2021/11/20 03:55:35;;;;;;;15.57;11.70;;;8.60;99.90;;;;;;5050752;28;20410;-82
2021/11/20 03:58:01;;;;;;;17.83;13.13;;;8.60;99.90;;;;;;5050506;28;20986;-82
2021/11/20 04:00:31;;;;;;;26.63;17.53;;;8.60;99.90;;;;;;5050503;28;20498;-82
2021/11/20 04:02:57;;;;;;;19.97;16.07;;;8.70;99.90;;;;;;5050740;28;20430;-82
2021/11/20 04:05:24;;;;;;;27.33;19.70;;;8.70;99.90;;;;;;5050671;28;20918;-82
2021/11/20 04:07:50;;;;;;;14.87;11.20;;;8.70;99.90;;;;;;5050403;28;20499;-82
2021/11/20 04:10:17;;;;;;;17.83;11.90;;;8.60;99.90;;;;;;5050735;28;20777;-82
2021/11/20 04:12:44;;;;;;;15.60;11.53;;;8.60;99.90;;;;;;5051295;28;20515;-82
2021/11/20 04:15:12;;;;;;;17.97;12.53;;;8.60;99.90;;;;;;5050600;28;20456;-82
2021/11/20 04:17:39;;;;;;;15.57;11.43;;;8.70;99.90;;;;;;5050415;28;20449;-82
2021/11/20 04:20:10;;;;;;;18.57;13.23;;;8.60;99.90;;;;;;5050538;28;20505;-82
2021/11/20 04:22:37;;;;;;;42.87;26.30;;;8.70;99.90;;;;;;5050519;28;20421;-82
2021/11/20 04:25:06;;;;;;;36.77;22.80;;;8.70;99.90;;;;;;5050306;28;20429;-82
2021/11/20 04:27:32;;;;;;;19.03;12.57;;;8.60;99.90;;;;;;5050015;28;20784;-82
2021/11/20 04:29:58;;;;;;;20.03;13.47;;;8.60;99.90;;;;;;5050519;28;20415;-82
2021/11/20 04:32:24;;;;;;;17.70;13.17;;;8.60;99.90;;;;;;5050117;28;20454;-82
2021/11/20 04:34:50;;;;;;;25.60;18.70;;;8.70;99.90;;;;;;5050283;28;20924;-81
2021/11/20 04:37:15;;;;;;;16.03;11.70;;;8.60;99.90;;;;;;5050198;28;20221;-82
2021/11/20 04:39:41;;;;;;;17.10;12.73;;;8.60;99.90;;;;;;5050167;28;20850;-82
2021/11/20 04:42:07;;;;;;;17.90;13.00;;;8.60;99.90;;;;;;5050149;28;20188;-82
2021/11/20 04:44:33;;;;;;;15.70;11.70;;;8.60;99.90;;;;;;5051556;28;20192;-82
2021/11/20 04:46:58;;;;;;;15.87;12.30;;;8.60;99.90;;;;;;5054068;28;20171;-82
2021/11/20 04:49:24;;;;;;;15.37;11.97;;;8.60;99.90;;;;;;5053732;28;20410;-82
2021/11/20 04:51:50;;;;;;;17.73;12.13;;;8.50;99.90;;;;;;5053948;28;20196;-82
2021/11/20 04:54:16;;;;;;;18.63;12.63;;;8.50;99.90;;;;;;5053984;28;20192;-82
2021/11/20 04:56:42;;;;;;;18.77;12.43;;;8.50;99.90;;;;;;5053861;28;20168;-82
2021/11/20 04:59:07;;;;;;;16.60;12.53;;;8.50;99.90;;;;;;5053534;28;20402;-82
2021/11/20 05:01:33;;;;;;;15.00;11.07;;;8.50;99.90;;;;;;5053728;28;20262;-82
2021/11/20 05:04:01;;;;;;;15.10;11.40;;;8.60;99.90;;;;;;5053594;28;20196;-82
2021/11/20 05:06:27;;;;;;;15.70;11.17;;;8.60;99.90;;;;;;5053704;28;20191;-82
2021/11/20 05:08:59;;;;;;;18.30;12.43;;;8.50;99.90;;;;;;5053301;28;20829;-82
2021/11/20 05:11:25;;;;;;;18.07;13.00;;;8.50;99.90;;;;;;5053549;28;20466;-82
2021/11/20 05:13:51;;;;;;;19.67;12.77;;;8.60;99.90;;;;;;5053346;28;20458;-82
2021/11/20 05:16:17;;;;;;;18.93;11.57;;;8.60;99.90;;;;;;5053502;28;20446;-82
2021/11/20 05:18:43;;;;;;;14.93;11.30;;;8.60;99.90;;;;;;5053239;28;20184;-82
2021/11/20 05:21:09;;;;;;;17.00;10.70;;;8.50;99.90;;;;;;5053428;28;20403;-82
2021/11/20 05:23:36;;;;;;;15.80;11.77;;;8.50;99.90;;;;;;5053045;28;21048;-82
2021/11/20 05:26:05;;;;;;;16.43;11.30;;;8.50;99.90;;;;;;5053797;28;20314;-82
2021/11/20 05:28:30;;;;;;;17.00;12.00;;;8.50;99.90;;;;;;5052954;28;20468;-82
2021/11/20 05:30:57;;;;;;;16.63;10.97;;;8.50;99.90;;;;;;5053121;28;20536;-82
2021/11/20 05:33:28;;;;;;;18.37;12.80;;;8.50;99.90;;;;;;5053181;28;20624;-82
2021/11/20 05:35:54;;;;;;;17.83;10.90;;;8.40;99.90;;;;;;5053167;28;20406;-82
2021/11/20 05:38:19;;;;;;;16.40;11.10;;;8.40;99.90;;;;;;5052967;28;20411;-82
2021/11/20 05:40:45;;;;;;;14.50;11.00;;;8.40;99.90;;;;;;5053080;28;20407;-82
2021/11/20 05:43:15;;;;;;;17.70;11.50;;;8.40;99.90;;;;;;5052882;28;20427;-82
2021/11/20 05:45:43;;;;;;;17.13;10.77;;;8.40;99.90;;;;;;5052967;28;20411;-82
2021/11/20 05:48:09;;;;;;;14.13;10.90;;;8.30;99.90;;;;;;5052695;28;20460;-82
2021/11/20 05:50:37;;;;;;;18.00;11.27;;;8.40;99.90;;;;;;5052795;28;20410;-82
2021/11/20 05:53:10;;;;;;;16.10;11.77;;;8.40;99.90;;;;;;5052760;28;20430;-82
2021/11/20 05:55:35;;;;;;;15.60;11.63;;;8.30;99.90;;;;;;5052738;28;20403;-82
2021/11/20 05:58:01;;;;;;;17.03;11.23;;;8.40;99.90;;;;;;5052527;28;20969;-82
2021/11/20 06:00:30;;;;;;;20.67;11.53;;;8.40;99.90;;;;;;5052736;28;20172;-82
2021/11/20 06:02:59;;;;;;;14.90;10.03;;;8.30;99.90;;;;;;5052610;28;20322;-82
2021/11/20 06:05:26;;;;;;;14.50;10.13;;;8.30;99.90;;;;;;5052435;28;20455;-82
2021/11/20 06:07:52;;;;;;;13.20;10.90;;;8.30;99.90;;;;;;5052307;28;20484;-82
2021/11/20 06:10:18;;;;;;;13.60;10.57;;;8.30;99.90;;;;;;5052491;28;20906;-82
2021/11/20 06:12:44;;;;;;;18.33;11.63;;;8.40;99.90;;;;;;5052270;28;20569;-82
2021/11/20 06:15:10;;;;;;;13.70;11.40;;;8.40;99.90;;;;;;5052335;28;20410;-82
2021/11/20 06:17:36;;;;;;;11.40;9.60;;;8.40;99.90;;;;;;5052108;28;20172;-82
2021/11/20 06:20:03;;;;;;;14.07;10.57;;;8.40;99.90;;;;;;5052376;28;20427;-82
2021/11/20 06:22:29;;;;;;;16.53;10.90;;;8.40;99.90;;;;;;5052207;28;20933;-82
2021/11/20 06:24:57;;;;;;;15.87;11.23;;;8.40;99.90;;;;;;5052298;28;20414;-82
2021/11/20 06:27:23;;;;;;;15.97;10.17;;;8.40;99.90;;;;;;5052055;28;20635;-82
2021/11/20 06:29:49;;;;;;;15.83;11.10;;;8.40;99.90;;;;;;5052098;28;20785;-82
2021/11/20 06:32:14;;;;;;;13.83;9.03;;;8.40;99.90;;;;;;5051977;28;20458;-82
2021/11/20 06:34:40;;;;;;;14.43;10.77;;;8.40;99.90;;;;;;5051821;28;20430;-82
2021/11/20 06:37:06;;;;;;;15.57;10.37;;;8.40;99.90;;;;;;5051920;28;20176;-82
2021/11/20 06:39:32;;;;;;;16.47;11.03;;;8.40;99.90;;;;;;5051750;28;20502;-82
2021/11/20 06:41:58;;;;;;;16.60;11.63;;;8.40;99.90;;;;;;5051773;28;20613;-82
2021/11/20 06:44:24;;;;;;;12.60;9.07;;;8.40;99.90;;;;;;5051809;28;20408;-82
2021/11/20 06:46:50;;;;;;;15.50;12.87;;;8.40;99.90;;;;;;5051935;28;20270;-82
2021/11/20 06:49:16;;;;;;;12.50;10.17;;;8.40;99.90;;;;;;5051401;28;20510;-82
2021/11/20 06:51:42;;;;;;;14.83;11.77;;;8.40;99.90;;;;;;5051592;28;20234;-81
2021/11/20 06:54:09;;;;;;;11.97;10.60;;;8.40;99.90;;;;;;5051549;28;20458;-82
2021/11/20 06:56:51;;;;;;;15.60;11.17;;;8.40;99.90;;;;;;5051679;28;20171;-82
2021/11/20 07:01:51;;;;;;;15.20;10.23;;;8.30;99.90;;;;;;5052862;28;20783;-82
2021/11/20 07:04:26;;;;;;;14.10;11.47;;;8.40;99.90;;;;;;5051455;28;20437;-82
2021/11/20 07:06:51;;;;;;;17.53;14.03;;;8.40;99.90;;;;;;5050972;28;20405;-82
2021/11/20 07:09:17;;;;;;;14.77;11.17;;;8.30;99.90;;;;;;5051077;28;20417;-82
2021/11/20 07:11:43;;;;;;;12.13;10.67;;;8.40;99.90;;;;;;5051221;28;20656;-82
2021/11/20 07:14:09;;;;;;;24.13;18.20;;;8.40;99.90;;;;;;5051053;28;20514;-82
2021/11/20 07:16:35;;;;;;;26.13;22.37;;;8.30;99.90;;;;;;5051319;28;20414;-82
2021/11/20 07:19:01;;;;;;;19.53;16.77;;;8.30;99.90;;;;;;5050820;28;20190;-82
2021/11/20 07:21:28;;;;;;;21.90;16.30;;;8.30;99.90;;;;;;5051252;28;20179;-82
2021/11/20 07:23:56;;;;;;;17.03;15.23;;;8.30;99.90;;;;;;5051287;28;20433;-82
2021/11/20 07:26:23;;;;;;;20.17;17.67;;;8.30;99.90;;;;;;5051064;28;20561;-82
2021/11/20 07:28:50;;;;;;;22.57;18.50;;;8.20;99.90;;;;;;5050743;28;20418;-82
2021/11/20 07:31:16;;;;;;;15.63;12.23;;;8.30;99.90;;;;;;5051066;28;20458;-82
2021/11/20 07:33:42;;;;;;;15.03;12.20;;;8.30;99.90;;;;;;5051019;28;20426;-82
2021/11/20 07:36:09;;;;;;;14.30;11.20;;;8.30;99.90;;;;;;5051041;28;20416;-82
2021/11/20 07:38:38;;;;;;;12.83;10.20;;;8.30;99.90;;;;;;5050726;28;20654;-82
2021/11/20 07:41:05;;;;;;;14.77;10.30;;;8.20;99.90;;;;;;5050763;28;20415;-82
2021/11/20 07:43:31;;;;;;;11.23;10.03;;;8.20;99.90;;;;;;5051211;28;20487;-82
2021/11/20 07:45:56;;;;;;;13.63;10.27;;;8.10;99.90;;;;;;5050928;28;20459;-82
2021/11/20 07:48:25;;;;;;;12.43;11.13;;;8.10;99.90;;;;;;5050788;28;20616;-82
2021/11/20 07:50:53;;;;;;;14.33;9.50;;;8.10;99.90;;;;;;5050850;28;20196;-81
2021/11/20 07:53:19;;;;;;;15.87;9.93;;;8.00;99.90;;;;;;5050778;28;20426;-82
2021/11/20 07:55:46;;;;;;;15.27;9.43;;;8.00;99.90;;;;;;5050853;28;20417;-82
2021/11/20 07:58:12;;;;;;;18.70;12.90;;;8.10;99.90;;;;;;5050599;28;20417;-81
2021/11/20 08:00:39;;;;;;;16.30;10.63;;;8.20;99.90;;;;;;5050802;28;20429;-82
2021/11/20 08:03:06;;;;;;;11.87;9.70;;;8.20;99.90;;;;;;5050528;28;20215;-81
2021/11/20 08:05:32;;;;;;;12.33;10.77;;;8.20;99.90;;;;;;5050666;28;20413;-81
2021/11/20 08:07:57;;;;;;;15.90;12.67;;;8.10;99.90;;;;;;5050520;28;20406;-81
2021/11/20 08:10:25;;;;;;;13.10;10.23;;;8.10;99.90;;;;;;5050478;28;20195;-81
2021/11/20 08:12:51;;;;;;;13.47;9.77;;;8.20;99.90;;;;;;5051635;28;20596;-82
2021/11/20 08:15:18;;;;;;;14.73;10.73;;;8.20;99.90;;;;;;5050523;28;20411;-81
2021/11/20 08:17:44;;;;;;;14.07;11.60;;;8.20;99.90;;;;;;5050092;28;20194;-81
2021/11/20 08:20:12;;;;;;;16.90;13.87;;;8.20;99.90;;;;;;5051902;28;20513;-82
2021/11/20 08:22:39;;;;;;;15.60;12.63;;;8.20;99.90;;;;;;5053099;28;20409;-82
2021/11/20 08:25:09;;;;;;;12.30;9.30;;;8.20;99.90;;;;;;5053229;28;20418;-82
2021/11/20 08:27:35;;;;;;;17.40;9.93;;;8.20;99.90;;;;;;5053080;28;20922;-84
2021/11/20 08:30:02;;;;;;;15.13;11.50;;;8.20;99.90;;;;;;5052915;28;20453;-81
2021/11/20 08:32:29;;;;;;;13.43;11.57;;;8.20;99.90;;;;;;5052584;28;20203;-81
2021/11/20 08:34:56;;;;;;;15.10;10.80;;;8.10;99.90;;;;;;5053134;28;20839;-81
2021/11/20 08:37:22;;;;;;;15.10;11.27;;;8.10;99.90;;;;;;5052531;28;20414;-81
2021/11/20 08:39:48;;;;;;;14.43;10.87;;;8.10;99.90;;;;;;5052923;28;20494;-81
2021/11/20 08:42:15;;;;;;;18.07;12.53;;;8.20;99.90;;;;;;5052889;28;20501;-81
2021/11/20 08:44:42;;;;;;;13.77;11.43;;;8.10;99.90;;;;;;5051762;28;20743;-81
2021/11/20 08:47:08;;;;;;;14.73;10.53;;;8.20;99.90;;;;;;5032793;28;20907;-81
2021/11/20 08:49:34;;;;;;;17.50;12.53;;;8.20;99.90;;;;;;5032839;28;20460;-81
2021/11/20 08:51:59;;;;;;;12.77;9.80;;;8.20;99.90;;;;;;5032552;28;20456;-81
2021/11/20 08:54:26;;;;;;;12.63;9.87;;;8.10;99.90;;;;;;5032750;28;20197;-81
2021/11/20 08:56:57;;;;;;;15.97;11.50;;;8.20;99.90;;;;;;5032790;28;20168;-81
2021/11/20 08:59:29;;;;;;;17.17;11.27;;;8.20;99.90;;;;;;5032455;28;20919;-81
2021/11/20 09:01:57;;;;;;;16.13;11.77;;;8.20;99.90;;;;;;5032812;28;20450;-81
2021/11/20 09:04:39;;;;;;;16.87;12.10;;;8.30;99.90;;;;;;5032453;28;20473;-81
2021/11/20 09:07:14;;;;;;;17.87;12.40;;;8.20;99.90;;;;;;5032583;28;20845;-81
2021/11/20 09:09:43;;;;;;;17.90;11.60;;;8.20;99.90;;;;;;5032491;28;20464;-81
2021/11/20 09:12:33;;;;;;;16.93;12.17;;;8.30;99.90;;;;;;5032493;28;20462;-81
2021/11/20 09:15:15;;;;;;;18.33;11.83;;;8.30;99.90;;;;;;5032428;28;20920;-81
2021/11/20 09:17:43;;;;;;;15.53;10.60;;;8.30;99.90;;;;;;4988550;28;1252129;-81
2021/11/20 09:20:10;;;;;;;18.80;13.17;;;8.30;99.90;;;;;;5019796;28;20407;-81
2021/11/20 09:22:36;;;;;;;20.97;12.83;;;8.20;99.90;;;;;;5033427;28;20415;-81
2021/11/20 09:25:03;;;;;;;22.63;13.67;;;8.20;99.90;;;;;;5033503;28;20407;-81
2021/11/20 09:27:29;;;;;;;18.77;11.43;;;8.20;99.90;;;;;;5033115;28;20833;-81
2021/11/20 09:29:55;;;;;;;20.97;13.60;;;8.20;99.90;;;;;;5032857;28;20407;-81
2021/11/20 09:32:20;;;;;;;20.80;12.90;;;8.20;99.90;;;;;;5033309;28;20203;-80
2021/11/20 09:34:47;;;;;;;18.83;13.33;;;8.30;99.90;;;;;;5035031;28;20573;-81
2021/11/20 09:37:12;;;;;;;17.23;12.73;;;8.30;99.90;;;;;;5033252;28;20168;-81
2021/11/20 09:39:39;;;;;;;22.10;14.00;;;8.30;99.90;;;;;;5033189;28;20465;-81
2021/11/20 09:42:27;;;;;;;24.33;14.17;;;8.30;99.90;;;;;;5033124;28;20661;-81
2021/11/20 09:44:57;;;;;;;22.40;14.43;;;8.40;99.90;;;;;;5033336;28;20786;-81
2021/11/20 09:47:29;;;;;;;19.57;13.70;;;8.30;99.90;;;;;;5033021;28;20412;-81
2021/11/20 09:50:10;;;;;;;21.20;15.13;;;8.30;99.90;;;;;;5033081;28;20922;-81
2021/11/20 09:52:36;;;;;;;22.10;13.43;;;8.30;99.90;;;;;;5032786;28;20458;-81
2021/11/20 09:55:03;;;;;;;20.50;13.90;;;8.30;99.90;;;;;;5033088;28;20896;-81
2021/11/20 09:57:47;;;;;;;21.03;14.23;;;8.40;99.90;;;;;;5032689;28;20410;-81
2021/11/20 10:00:13;;;;;;;17.70;13.10;;;8.40;99.90;;;;;;5032874;28;20426;-81
2021/11/20 10:02:53;;;;;;;19.87;14.73;;;8.40;99.90;;;;;;5032753;28;21106;-81
2021/11/20 10:05:34;;;;;;;24.40;14.70;;;8.50;99.90;;;;;;5032779;28;20447;-81
2021/11/20 10:08:22;;;;;;;17.70;13.40;;;8.50;99.90;;;;;;5032523;28;21030;-81
2021/11/20 10:10:57;;;;;;;18.93;12.63;;;8.50;99.90;;;;;;5032578;28;20409;-81
2021/11/20 10:13:27;;;;;;;16.20;11.80;;;8.40;99.90;;;;;;5032422;28;20434;-81
2021/11/20 10:16:18;;;;;;;15.90;13.53;;;8.40;99.90;;;;;;5032651;28;20407;-81
2021/11/20 10:19:06;;;;;;;18.60;14.03;;;8.40;99.90;;;;;;5032439;28;20439;-81
2021/11/20 10:21:40;;;;;;;23.20;15.87;;;8.40;99.90;;;;;;5032368;28;20407;-81
2021/11/20 10:24:27;;;;;;;17.93;13.00;;;8.40;99.90;;;;;;5032387;28;20439;-81
2021/11/20 10:27:20;;;;;;;20.17;13.47;;;8.30;99.90;;;;;;5032317;28;20785;-81
2021/11/20 10:30:03;;;;;;;16.87;12.10;;;8.40;99.90;;;;;;5032273;28;20923;-81
2021/11/20 10:32:32;;;;;;;19.10;12.00;;;8.40;99.90;;;;;;5032046;28;21046;-81
2021/11/20 10:35:01;;;;;;;16.27;13.30;;;8.30;99.90;;;;;;5032262;28;20416;-81
2021/11/20 10:37:45;;;;;;;18.77;13.77;;;8.30;99.90;;;;;;5032139;28;20469;-81
2021/11/20 10:40:28;;;;;;;19.70;13.40;;;8.40;99.90;;;;;;5032070;28;20431;-81
2021/11/20 10:43:33;;;;;;;16.60;11.40;;;8.40;99.90;;;;;;5031218;28;20514;-81
2021/11/20 10:46:02;;;;;;;15.77;11.90;;;8.40;99.90;;;;;;5014481;28;20931;-81
2021/11/20 10:48:33;;;;;;;20.47;11.30;;;8.40;99.90;;;;;;5031662;28;20518;-81
2021/11/20 10:51:18;;;;;;;16.33;12.07;;;8.30;99.90;;;;;;5031741;28;20520;-81
2021/11/20 10:54:01;;;;;;;17.67;13.37;;;8.40;99.90;;;;;;5031675;28;20520;-81
2021/11/20 10:56:46;;;;;;;17.63;12.13;;;8.40;99.90;;;;;;5031694;28;20447;-81
2021/11/20 10:59:49;;;;;;;20.53;12.63;;;8.40;99.90;;;;;;5031537;28;20407;-81
2021/11/20 11:02:23;;;;;;;17.63;12.60;;;8.50;99.90;;;;;;5031850;28;20469;-81
2021/11/20 11:05:05;;;;;;;17.57;12.90;;;8.50;99.90;;;;;;5031797;28;20407;-81
2021/11/20 11:07:44;;;;;;;15.17;11.73;;;8.50;99.90;;;;;;5031414;28;20993;-81
2021/11/20 11:10:15;;;;;;;14.80;9.83;;;8.60;99.90;;;;;;5031655;28;20842;-81
2021/11/20 11:12:57;;;;;;;13.00;9.97;;;8.60;99.90;;;;;;5031324;28;20467;-81
2021/11/20 11:15:36;;;;;;;15.70;11.37;;;8.50;99.90;;;;;;5031436;28;20415;-81
2021/11/20 11:18:11;;;;;;;16.27;11.40;;;8.60;99.90;;;;;;5032391;28;20895;-81
2021/11/20 11:21:04;;;;;;;17.77;12.23;;;8.50;99.90;;;;;;5031302;28;20403;-81
2021/11/20 11:23:35;;;;;;;13.80;12.03;;;8.50;99.90;;;;;;5031248;28;20427;-81
2021/11/20 11:26:11;;;;;;;14.10;10.73;;;8.60;99.90;;;;;;5031457;28;20491;-80
2021/11/20 11:28:49;;;;;;;17.53;11.37;;;8.60;99.90;;;;;;5032499;28;20510;-81
2021/11/20 11:31:33;;;;;;;13.73;10.03;;;8.70;99.90;;;;;;5031149;28;20813;-81
2021/11/20 11:34:19;;;;;;;15.30;10.77;;;8.60;99.90;;;;;;5030921;28;20439;-81
2021/11/20 11:37:32;;;;;;;14.77;12.37;;;8.60;99.90;;;;;;5030788;28;20419;-80
2021/11/20 11:40:28;;;;;;;13.60;11.33;;;8.70;99.90;;;;;;4978653;28;20413;-81
2021/11/20 11:43:09;;;;;;;14.27;11.03;;;8.70;99.90;;;;;;5030817;28;20586;-81
2021/11/20 11:45:46;;;;;;;13.90;11.20;;;8.60;99.90;;;;;;5030985;28;20831;-81
2021/11/20 11:48:18;;;;;;;13.37;11.47;;;8.60;99.90;;;;;;5030708;28;20450;-81
2021/11/20 11:51:32;;;;;;;14.23;10.33;;;8.70;99.90;;;;;;5030721;28;20747;-81
2021/11/20 11:54:19;;;;;;;13.23;11.63;;;8.80;99.90;;;;;;5030618;28;20822;-82
2021/11/20 11:56:54;;;;;;;14.63;11.20;;;8.70;99.90;;;;;;5030835;28;20406;-81
2021/11/20 11:59:34;;;;;;;12.00;8.80;;;8.70;99.90;;;;;;5030670;28;20466;-82
2021/11/20 12:02:20;;;;;;;15.17;11.00;;;8.70;99.90;;;;;;5030877;28;20407;-82
2021/11/20 12:04:52;;;;;;;14.33;11.97;;;8.70;99.90;;;;;;5030848;28;20411;-82
2021/11/20 12:07:24;;;;;;;14.07;11.20;;;8.80;99.90;;;;;;5030779;28;20407;-82
2021/11/20 12:09:53;;;;;;;15.37;11.00;;;8.80;99.90;;;;;;5030701;28;20414;-82
2021/11/20 12:12:33;;;;;;;14.47;11.93;;;8.90;99.90;;;;;;5030695;28;20509;-82
2021/11/20 12:15:10;;;;;;;17.83;12.80;;;8.90;99.90;;;;;;5030759;28;20946;-83
2021/11/20 12:18:00;;;;;;;11.93;10.57;;;8.90;99.90;;;;;;5030254;28;20440;-82
2021/11/20 12:20:40;;;;;;;17.80;12.73;;;8.90;99.90;;;;;;5030480;28;20919;-82
2021/11/20 12:23:33;;;;;;;13.30;10.80;;;8.80;99.90;;;;;;5030596;28;20572;-82
2021/11/20 12:26:19;;;;;;;14.73;11.47;;;8.90;99.90;;;;;;5030613;28;20416;-82
2021/11/20 12:28:51;;;;;;;14.60;11.70;;;8.90;99.90;;;;;;5030249;28;20439;-82
2021/11/20 12:31:44;;;;;;;12.57;10.17;;;8.90;99.90;;;;;;5030433;28;20469;-82
2021/11/20 12:34:19;;;;;;;13.27;10.80;;;9.00;99.90;;;;;;5030349;28;20443;-82
2021/11/20 12:36:47;;;;;;;13.57;10.50;;;9.00;99.90;;;;;;5030331;28;20473;-82
2021/11/20 12:39:58;;;;;;;15.40;10.70;;;9.00;99.90;;;;;;5030306;28;20415;-82
2021/11/20 12:42:51;;;;;;;14.07;10.50;;;9.00;99.90;;;;;;5007458;28;20418;-82
2021/11/20 12:45:31;;;;;;;13.67;11.73;;;9.00;99.90;;;;;;5030366;28;20873;-82
2021/11/20 12:48:06;;;;;;;12.27;9.50;;;9.00;99.90;;;;;;5030286;28;20399;-82
2021/11/20 12:50:56;;;;;;;11.50;10.30;;;8.90;99.90;;;;;;5030296;28;20907;-82
2021/11/20 12:53:38;;;;;;;17.97;10.60;;;8.90;99.90;;;;;;5030202;28;21000;-82
2021/11/20 12:56:23;;;;;;;12.40;10.27;;;8.90;99.90;;;;;;5030179;28;20422;-82
2021/11/20 12:59:12;;;;;;;14.80;10.20;;;8.90;99.90;;;;;;5030055;28;20415;-82
2021/11/20 13:01:44;;;;;;;13.03;10.67;;;8.90;99.90;;;;;;5030292;28;20403;-82